Standish, Michigan
Current Conditions -  °F | °C
As of 11:14 AM on Wednesday 28 Jan 2015 (Local Time) from KIKW Reporting Station
Clear Clear  
Wind Chill: 17°   Ceiling: Unl
Heat Index: 23°   Visibility: 10mi
Dew Point: 13°   Wind: 5mph
Humidity: 65%   Direction: 190°S
Pressure: 30.32"   Gusts: NA
Location:  43.98°N, 83.96°W
Report Text: KIKW 281614Z AUTO 19004KT 10SM CLR M05/M10 A3032 RMK AO2 T10481105
Loading
Personal Weather Stations






























Interactive Weather Map New forecast layout! Learn more

10-Day Weather Forecast

Advertisements
Track Severe Weather on mobile